createdAt,value
2022-08-05T00:01:25.247Z,4.40
2022-08-05T00:06:37.255Z,3.50
2022-08-05T00:11:49.671Z,4.60
2022-08-05T00:17:06.119Z,4.80
2022-08-05T00:22:29.434Z,7.00
2022-08-05T00:27:39.522Z,3.30
2022-08-05T00:32:52.492Z,4.60
2022-08-05T00:38:02.077Z,4.70
2022-08-05T00:43:11.196Z,4.10
2022-08-05T00:48:31.277Z,6.50
2022-08-05T00:54:01.456Z,3.30
2022-08-05T00:59:09.132Z,4.40
2022-08-05T01:04:20.306Z,3.70
2022-08-05T01:09:38.585Z,4.90
2022-08-05T01:14:54.828Z,3.40
2022-08-05T01:20:28.751Z,4.80
2022-08-05T01:26:13.342Z,6.00
2022-08-05T01:31:29.697Z,5.40
2022-08-05T01:36:47.010Z,4.70
2022-08-05T01:41:57.652Z,7.20
2022-08-05T01:47:06.874Z,5.60
2022-08-05T01:58:12.356Z,5.30
2022-08-05T02:03:06.258Z,3.80
2022-08-05T02:08:14.549Z,5.90
2022-08-05T02:13:53.084Z,5.00
2022-08-05T02:19:10.843Z,5.20
2022-08-05T02:24:24.997Z,3.20
2022-08-05T02:29:58.691Z,4.40
2022-08-05T02:35:13.867Z,6.20
2022-08-05T02:40:26.103Z,5.50
2022-08-05T02:51:04.405Z,5.70
2022-08-05T02:56:15.743Z,5.80
2022-08-05T03:01:29.299Z,5.20
2022-08-05T03:06:54.483Z,7.90
2022-08-05T03:12:10.191Z,4.00
2022-08-05T03:17:18.866Z,3.90
2022-08-05T03:22:32.302Z,4.60
2022-08-05T03:28:00.093Z,3.50
2022-08-05T03:33:10.608Z,5.40
2022-08-05T03:38:23.894Z,4.40
2022-08-05T03:44:08.335Z,4.70
2022-08-05T03:49:11.527Z,3.30
2022-08-05T03:55:51.093Z,4.60
2022-08-05T04:00:08.267Z,4.80
2022-08-05T04:05:23.252Z,3.50
2022-08-05T04:10:37.754Z,5.80
2022-08-05T04:16:03.114Z,4.50
2022-08-05T04:21:19.933Z,4.80
2022-08-05T04:26:43.505Z,4.50
2022-08-05T04:31:52.553Z,5.50
2022-08-05T04:37:06.058Z,4.60
2022-08-05T04:42:14.608Z,3.50
2022-08-05T04:47:21.926Z,4.00
2022-08-05T04:52:33.347Z,3.70
2022-08-05T04:57:41.650Z,4.80
2022-08-05T05:02:56.033Z,4.40
2022-08-05T05:08:26.421Z,6.20
2022-08-05T05:13:42.953Z,4.20
2022-08-05T05:19:16.546Z,3.30
2022-08-05T05:24:22.280Z,4.80
2022-08-05T05:30:04.250Z,7.00
2022-08-05T05:35:19.970Z,3.10
2022-08-05T05:40:32.052Z,5.00
2022-08-05T05:45:42.640Z,4.30
2022-08-05T05:50:57.084Z,4.30
2022-08-05T05:56:05.431Z,3.30
2022-08-05T06:01:15.151Z,5.00
2022-08-05T06:06:27.737Z,3.80
2022-08-05T06:11:39.858Z,4.10
2022-08-05T06:16:47.889Z,5.00
2022-08-05T06:21:56.298Z,3.10
2022-08-05T06:27:05.750Z,3.20
2022-08-05T06:32:28.862Z,4.90
2022-08-05T06:37:56.082Z,3.70
2022-08-05T06:43:05.898Z,3.80
2022-08-05T06:48:52.981Z,2.90
2022-08-05T06:54:06.856Z,4.40
2022-08-05T06:59:16.365Z,2.80
2022-08-05T07:04:24.687Z,3.70
2022-08-05T07:09:40.405Z,3.80
2022-08-05T07:15:08.745Z,3.40
2022-08-05T07:20:32.887Z,3.80
2022-08-05T07:25:55.167Z,2.50
2022-08-05T07:31:05.889Z,3.00
2022-08-05T07:36:20.709Z,4.60
2022-08-05T07:42:14.318Z,3.00
2022-08-05T07:47:00.220Z,3.10
2022-08-05T07:52:09.083Z,4.20
2022-08-05T07:57:51.164Z,3.00
2022-08-05T08:03:14.598Z,3.40
2022-08-05T08:08:16.057Z,5.20
2022-08-05T08:13:28.958Z,3.80
2022-08-05T08:18:37.656Z,3.20
2022-08-05T08:24:03.873Z,2.80
2022-08-05T08:29:29.449Z,4.30
2022-08-05T08:34:42.556Z,2.70
2022-08-05T08:39:50.756Z,3.30
2022-08-05T08:45:23.751Z,3.00
2022-08-05T08:51:03.918Z,3.40
2022-08-05T08:56:04.801Z,3.30
2022-08-05T09:01:15.856Z,3.10
2022-08-05T09:06:28.137Z,3.50
2022-08-05T09:11:50.830Z,2.90
2022-08-05T09:17:03.394Z,2.70
2022-08-05T09:22:25.078Z,3.10
2022-08-05T09:28:04.857Z,2.60
2022-08-05T09:33:10.073Z,2.30
2022-08-05T09:38:27.513Z,4.10
2022-08-05T09:43:42.220Z,2.90
2022-08-05T09:49:07.264Z,5.00
2022-08-05T09:54:21.208Z,2.50
2022-08-05T09:59:38.079Z,2.80
2022-08-05T10:04:45.683Z,3.80
2022-08-05T10:10:13.918Z,4.50
2022-08-05T10:20:47.719Z,3.00
2022-08-05T10:25:58.550Z,4.70
2022-08-05T10:32:49.186Z,3.80
2022-08-05T10:36:39.506Z,5.10
2022-08-05T10:42:00.749Z,3.30
2022-08-05T10:47:26.457Z,2.50
2022-08-05T10:52:53.675Z,5.00
2022-08-05T10:58:15.796Z,6.50
2022-08-05T11:03:27.290Z,3.10
2022-08-05T11:08:38.155Z,3.20
2022-08-05T11:13:55.059Z,5.20
2022-08-05T11:20:16.555Z,2.50
2022-08-05T11:26:04.343Z,3.10
2022-08-05T11:31:58.870Z,5.60
2022-08-05T11:36:57.735Z,2.90
2022-08-05T11:42:07.237Z,3.40
2022-08-05T11:47:21.556Z,4.00
2022-08-05T11:52:31.987Z,3.50
2022-08-05T11:58:10.422Z,5.20
2022-08-05T12:03:28.764Z,5.80
2022-08-05T12:08:49.993Z,2.70
2022-08-05T12:14:03.999Z,2.80
2022-08-05T12:20:26.825Z,2.50
2022-08-05T12:24:49.681Z,2.60
2022-08-05T12:30:06.813Z,5.40
2022-08-05T12:35:16.800Z,2.80
2022-08-05T12:40:33.431Z,4.00
2022-08-05T12:45:52.186Z,3.80
2022-08-05T12:52:10.273Z,4.60
2022-08-05T12:56:53.280Z,3.40
2022-08-05T13:02:07.221Z,2.80
2022-08-05T13:07:41.374Z,3.50
2022-08-05T13:12:57.461Z,4.10
2022-08-05T13:18:07.862Z,6.00
2022-08-05T13:23:18.218Z,5.50
2022-08-05T13:28:32.475Z,3.70
2022-08-05T13:34:21.584Z,4.30
2022-08-05T13:44:42.020Z,4.40
2022-08-05T13:49:55.569Z,4.80
2022-08-05T13:55:07.649Z,3.40
2022-08-05T14:00:27.194Z,3.10
2022-08-05T14:06:24.529Z,10.60
2022-08-05T14:11:20.952Z,5.80
2022-08-05T14:16:31.353Z,3.70
2022-08-05T14:22:09.659Z,3.10
2022-08-05T14:27:18.315Z,4.00
2022-08-05T14:32:28.261Z,4.10
2022-08-05T14:37:45.650Z,4.40
2022-08-05T14:42:58.641Z,3.90
2022-08-05T14:48:08.662Z,3.70
2022-08-05T14:53:17.960Z,3.30
2022-08-05T14:58:26.497Z,5.20
2022-08-05T15:03:39.146Z,5.60
2022-08-05T15:08:57.749Z,3.70
2022-08-05T15:14:09.472Z,5.30
2022-08-05T15:19:23.749Z,5.20
2022-08-05T15:24:33.947Z,5.20
2022-08-05T15:29:49.225Z,4.60
2022-08-05T15:34:57.542Z,4.50
2022-08-05T15:40:58.699Z,5.30
2022-08-05T15:45:38.378Z,3.90
2022-08-05T15:50:51.007Z,4.70
2022-08-05T15:56:04.252Z,4.80
2022-08-05T16:01:17.927Z,9.80
2022-08-05T16:06:26.373Z,6.50
2022-08-05T16:11:40.095Z,5.70
2022-08-05T16:16:52.521Z,5.70
2022-08-05T16:22:03.333Z,4.30
2022-08-05T16:27:16.003Z,4.70
2022-08-05T16:32:29.105Z,4.90
2022-08-05T16:38:16.767Z,6.10
2022-08-05T16:43:09.744Z,5.60
2022-08-05T16:48:25.283Z,5.50
2022-08-05T16:54:06.201Z,4.20
2022-08-05T16:59:07.677Z,5.30
2022-08-05T17:04:18.624Z,4.20
2022-08-05T17:09:27.429Z,6.60
2022-08-05T17:14:38.402Z,4.00
2022-08-05T17:19:55.499Z,5.50
2022-08-05T17:25:09.714Z,6.30
2022-08-05T17:30:32.318Z,5.50
2022-08-05T17:36:08.050Z,4.50
2022-08-05T17:41:11.697Z,5.50
2022-08-05T17:46:38.907Z,7.30
2022-08-05T17:51:50.100Z,5.50
2022-08-05T17:56:58.711Z,5.60
2022-08-05T18:02:10.753Z,6.20
2022-08-05T18:07:19.418Z,5.30
2022-08-05T18:12:28.804Z,6.70
2022-08-05T18:17:59.491Z,8.70
2022-08-05T18:23:09.311Z,5.90
2022-08-05T18:28:21.850Z,7.90
2022-08-05T18:33:46.570Z,6.80
2022-08-05T18:38:56.711Z,9.80
2022-08-05T18:44:07.986Z,18.20
2022-08-05T18:49:56.813Z,76.90
2022-08-05T18:55:10.291Z,36.20
2022-08-05T19:00:20.883Z,23.00
2022-08-05T19:06:12.092Z,19.80
2022-08-05T19:11:07.107Z,11.40
2022-08-05T19:16:25.447Z,10.10
2022-08-05T19:21:40.114Z,8.80
2022-08-05T19:32:08.653Z,14.40
2022-08-05T19:37:20.937Z,8.90
2022-08-05T19:42:35.903Z,9.10
2022-08-05T19:47:45.403Z,9.30
2022-08-05T19:52:54.366Z,9.70
2022-08-05T19:58:19.614Z,13.30
2022-08-05T20:03:38.714Z,10.10
2022-08-05T20:08:50.206Z,9.40
2022-08-05T20:14:12.809Z,8.70
2022-08-05T20:19:35.948Z,9.00
2022-08-05T20:24:46.080Z,12.80
2022-08-05T20:29:58.282Z,13.20
2022-08-05T20:35:08.614Z,26.80
2022-08-05T20:40:18.372Z,26.10
2022-08-05T20:45:56.088Z,17.60
2022-08-05T20:50:55.175Z,13.60
2022-08-05T20:56:09.013Z,11.00
2022-08-05T21:01:18.831Z,9.70
2022-08-05T21:06:46.144Z,9.30
2022-08-05T21:12:10.093Z,8.40
2022-08-05T21:17:20.576Z,8.50
2022-08-05T21:22:30.012Z,8.00
2022-08-05T21:27:39.120Z,8.60
2022-08-05T21:32:47.234Z,8.90
2022-08-05T21:37:55.714Z,9.30
2022-08-05T21:43:05.527Z,9.90
2022-08-05T21:48:14.262Z,9.40
2022-08-05T21:53:23.246Z,10.40
2022-08-05T21:58:36.594Z,11.10
2022-08-05T22:03:48.625Z,8.10
2022-08-05T22:09:00.524Z,9.50
2022-08-05T22:14:34.217Z,9.30
2022-08-05T22:20:00.332Z,10.40
2022-08-05T22:25:31.097Z,10.00
2022-08-05T22:30:56.728Z,10.10
2022-08-05T22:36:07.703Z,10.70
2022-08-05T22:46:45.650Z,8.70
2022-08-05T22:52:05.217Z,8.70
2022-08-05T22:57:16.781Z,10.40
2022-08-05T23:02:29.509Z,8.50
2022-08-05T23:07:44.997Z,9.60
2022-08-05T23:12:57.705Z,9.80
2022-08-05T23:18:15.846Z,11.50
2022-08-05T23:23:25.160Z,9.90
2022-08-05T23:28:39.165Z,9.50
2022-08-05T23:34:05.217Z,9.20
2022-08-05T23:39:23.704Z,8.80
2022-08-05T23:44:42.567Z,9.80
2022-08-05T23:49:55.468Z,13.10
2022-08-05T23:55:09.015Z,12.80
